createdAt,value
2023-05-25T00:00:00.269Z,4.70
2023-05-25T00:02:29.688Z,4.40
2023-05-25T00:04:58.429Z,4.80
2023-05-25T00:07:26.206Z,4.90
2023-05-25T00:09:53.962Z,4.55
2023-05-25T00:12:22.034Z,5.30
2023-05-25T00:14:49.919Z,5.18
2023-05-25T00:17:18.898Z,5.53
2023-05-25T00:19:48.259Z,5.05
2023-05-25T00:22:16.054Z,5.68
2023-05-25T00:24:43.809Z,4.45
2023-05-25T00:27:11.647Z,4.80
2023-05-25T00:29:39.462Z,4.50
2023-05-25T00:32:07.965Z,4.65
2023-05-25T00:34:36.298Z,5.18
2023-05-25T00:37:05.981Z,4.25
2023-05-25T00:39:33.975Z,4.47
2023-05-25T00:42:03.708Z,4.35
2023-05-25T00:44:32.153Z,4.75
2023-05-25T00:47:01.493Z,5.80
2023-05-25T00:49:31.048Z,4.15
2023-05-25T00:51:59.049Z,4.75
2023-05-25T00:57:52.992Z,5.72
2023-05-25T01:00:21.460Z,5.03
2023-05-25T01:02:52.872Z,5.32
2023-05-25T01:05:23.042Z,5.40
2023-05-25T01:07:54.150Z,4.50
2023-05-25T01:10:23.862Z,5.43
2023-05-25T01:12:54.493Z,6.65
2023-05-25T01:15:22.469Z,5.53
2023-05-25T01:17:54.192Z,6.13
2023-05-25T01:20:22.112Z,6.03
2023-05-25T01:22:58.420Z,5.18
2023-05-25T01:25:32.668Z,5.78
2023-05-25T01:28:05.215Z,5.63
2023-05-25T01:30:34.082Z,6.38
2023-05-25T01:33:02.975Z,5.50
2023-05-25T01:35:31.079Z,5.90
2023-05-25T01:38:00.509Z,4.78
2023-05-25T01:40:28.494Z,5.88
2023-05-25T01:42:56.354Z,6.15
2023-05-25T01:45:24.665Z,6.55
2023-05-25T01:48:01.004Z,5.65
2023-05-25T01:50:35.181Z,6.50
2023-05-25T01:53:07.378Z,4.75
2023-05-25T01:55:40.434Z,5.25
2023-05-25T01:58:10.448Z,6.50
2023-05-25T02:00:40.416Z,6.00
2023-05-25T02:03:10.145Z,6.53
2023-05-25T02:05:38.931Z,7.47
2023-05-25T02:08:08.076Z,6.22
2023-05-25T02:10:35.873Z,4.90
2023-05-25T02:13:03.723Z,6.85
2023-05-25T02:15:33.150Z,6.90
2023-05-25T02:18:01.544Z,6.30
2023-05-25T02:20:29.727Z,4.65
2023-05-25T02:22:57.511Z,5.32
2023-05-25T02:25:26.679Z,7.07
2023-05-25T02:27:54.894Z,4.40
2023-05-25T02:30:22.784Z,5.63
2023-05-25T02:32:50.892Z,4.88
2023-05-25T02:35:18.818Z,6.43
2023-05-25T02:37:48.461Z,6.70
2023-05-25T02:40:18.884Z,5.80
2023-05-25T02:42:48.014Z,5.20
2023-05-25T02:45:15.842Z,5.68
2023-05-25T02:47:43.758Z,6.15
2023-05-25T02:50:12.142Z,5.90
2023-05-25T02:52:39.952Z,7.63
2023-05-25T02:55:10.340Z,7.18
2023-05-25T02:57:38.949Z,6.68
2023-05-25T03:00:11.188Z,6.43
2023-05-25T03:02:38.952Z,6.35
2023-05-25T03:05:07.572Z,5.47
2023-05-25T03:07:35.748Z,6.30
2023-05-25T03:10:03.610Z,6.22
2023-05-25T03:12:31.368Z,6.28
2023-05-25T03:14:59.169Z,5.78
2023-05-25T03:17:28.356Z,4.47
2023-05-25T03:19:56.216Z,5.68
2023-05-25T03:22:24.117Z,5.75
2023-05-25T03:24:51.881Z,5.90
2023-05-25T03:27:19.703Z,6.32
2023-05-25T03:29:50.096Z,5.90
2023-05-25T03:32:18.130Z,4.07
2023-05-25T03:34:47.265Z,5.70
2023-05-25T03:37:15.067Z,5.15
2023-05-25T03:39:42.984Z,4.60
2023-05-25T03:42:10.907Z,4.28
2023-05-25T03:44:40.497Z,5.07
2023-05-25T03:47:09.093Z,4.75
2023-05-25T03:49:36.985Z,4.43
2023-05-25T03:52:07.222Z,4.35
2023-05-25T03:54:35.167Z,9.38
2023-05-25T03:57:03.784Z,5.72
2023-05-25T03:59:32.283Z,4.00
2023-05-25T04:02:00.158Z,5.00
2023-05-25T04:04:30.051Z,4.90
2023-05-25T04:06:57.926Z,4.43
2023-05-25T04:09:27.169Z,4.00
2023-05-25T04:11:54.982Z,4.28
2023-05-25T04:14:22.849Z,4.30
2023-05-25T04:16:50.987Z,4.63
2023-05-25T04:19:19.410Z,5.53
2023-05-25T04:21:47.169Z,7.25
2023-05-25T04:24:15.004Z,5.30
2023-05-25T04:26:46.199Z,4.80
2023-05-25T04:29:14.270Z,5.20
2023-05-25T04:31:43.492Z,5.47
2023-05-25T04:34:11.302Z,5.10
2023-05-25T04:36:43.082Z,7.82
2023-05-25T04:39:10.957Z,4.00
2023-05-25T04:41:39.316Z,5.45
2023-05-25T04:44:10.379Z,4.22
2023-05-25T04:46:39.161Z,4.65
2023-05-25T04:49:08.582Z,5.30
2023-05-25T04:51:37.230Z,5.20
2023-05-25T04:54:05.570Z,5.93
2023-05-25T04:56:33.479Z,6.32
2023-05-25T04:59:01.450Z,5.55
2023-05-25T05:01:34.321Z,5.00
2023-05-25T05:04:02.258Z,4.83
2023-05-25T05:06:30.088Z,5.68
2023-05-25T05:08:57.868Z,5.30
2023-05-25T05:11:25.747Z,5.40
2023-05-25T05:13:53.497Z,5.93
2023-05-25T05:16:21.436Z,5.65
2023-05-25T05:18:50.636Z,7.40
2023-05-25T05:21:18.853Z,7.57
2023-05-25T05:23:47.700Z,7.65
2023-05-25T05:26:15.584Z,5.90
2023-05-25T05:28:43.549Z,6.30
2023-05-25T05:31:12.198Z,6.57
2023-05-25T05:33:40.529Z,6.50
2023-05-25T05:36:10.137Z,6.38
2023-05-25T05:38:39.962Z,7.53
2023-05-25T05:41:13.421Z,6.53
2023-05-25T05:43:42.438Z,5.40
2023-05-25T05:46:10.766Z,5.70
2023-05-25T05:48:39.115Z,5.45
2023-05-25T05:51:07.321Z,6.90
2023-05-25T05:53:36.537Z,6.00
2023-05-25T05:56:04.504Z,6.57
2023-05-25T05:58:32.511Z,6.47
2023-05-25T06:01:01.485Z,5.13
2023-05-25T06:03:29.732Z,5.95
2023-05-25T06:05:57.714Z,5.38
2023-05-25T06:08:26.112Z,4.75
2023-05-25T06:10:56.064Z,6.53
2023-05-25T06:13:23.889Z,5.18
2023-05-25T06:15:51.656Z,5.32
2023-05-25T06:18:19.406Z,5.15
2023-05-25T06:20:47.286Z,5.22
2023-05-25T06:23:15.185Z,5.40
2023-05-25T06:25:43.140Z,5.07
2023-05-25T06:28:12.421Z,4.53
2023-05-25T06:30:40.258Z,4.90
2023-05-25T06:33:08.669Z,4.53
2023-05-25T06:35:36.535Z,4.60
2023-05-25T06:38:04.342Z,4.50
2023-05-25T06:40:32.338Z,4.90
2023-05-25T06:43:00.167Z,5.07
2023-05-25T06:45:29.367Z,4.43
2023-05-25T06:47:57.481Z,4.07
2023-05-25T06:50:25.343Z,3.88
2023-05-25T06:52:53.210Z,4.55
2023-05-25T06:55:21.019Z,4.88
2023-05-25T06:57:48.788Z,4.75
2023-05-25T07:00:39.504Z,4.63
2023-05-25T07:03:07.276Z,4.15
2023-05-25T07:05:35.098Z,4.18
2023-05-25T07:08:02.870Z,4.63
2023-05-25T07:10:30.718Z,3.63
2023-05-25T07:12:58.535Z,4.13
2023-05-25T07:15:26.471Z,3.70
2023-05-25T07:17:57.219Z,3.90
2023-05-25T07:20:25.296Z,4.05
2023-05-25T07:22:53.769Z,4.63
2023-05-25T07:25:21.587Z,3.95
2023-05-25T07:27:50.277Z,3.10
2023-05-25T07:30:18.213Z,3.55
2023-05-25T07:32:46.466Z,3.35
2023-05-25T07:35:15.824Z,4.13
2023-05-25T07:37:43.657Z,3.83
2023-05-25T07:40:12.169Z,4.05
2023-05-25T07:42:40.582Z,3.50
2023-05-25T07:45:09.180Z,3.42
2023-05-25T07:47:37.145Z,3.30
2023-05-25T07:50:09.921Z,3.38
2023-05-25T07:52:39.379Z,3.92
2023-05-25T07:55:08.215Z,3.63
2023-05-25T07:57:36.309Z,3.83
2023-05-25T08:00:06.388Z,4.35
2023-05-25T08:02:34.307Z,3.17
2023-05-25T08:05:06.033Z,2.97
2023-05-25T08:07:34.159Z,3.90
2023-05-25T08:10:07.092Z,3.42
2023-05-25T08:12:47.764Z,3.37
2023-05-25T08:15:16.571Z,3.72
2023-05-25T08:17:44.940Z,3.15
2023-05-25T08:20:13.626Z,3.70
2023-05-25T08:22:41.649Z,3.08
2023-05-25T08:25:11.280Z,3.60
2023-05-25T08:27:39.289Z,3.30
2023-05-25T08:30:08.369Z,2.88
2023-05-25T08:32:36.268Z,3.63
2023-05-25T08:35:04.689Z,3.97
2023-05-25T08:37:33.372Z,5.43
2023-05-25T08:40:02.718Z,3.28
2023-05-25T08:42:31.971Z,3.30
2023-05-25T08:44:59.956Z,3.50
2023-05-25T08:47:32.586Z,3.25
2023-05-25T08:50:04.098Z,3.13
2023-05-25T08:52:35.192Z,3.38
2023-05-25T08:55:06.381Z,2.90
2023-05-25T08:57:47.134Z,3.30
2023-05-25T09:00:16.811Z,3.15
2023-05-25T09:02:51.785Z,3.20
2023-05-25T09:05:20.242Z,2.67
2023-05-25T09:07:49.903Z,3.00
2023-05-25T09:10:21.876Z,3.22
2023-05-25T09:12:52.541Z,3.95
2023-05-25T09:15:20.483Z,2.90
2023-05-25T09:17:48.536Z,2.75
2023-05-25T09:20:17.357Z,3.15
2023-05-25T09:22:45.718Z,2.83
2023-05-25T09:25:18.395Z,2.63
2023-05-25T09:27:46.935Z,2.75
2023-05-25T09:30:17.132Z,3.33
2023-05-25T09:32:47.585Z,3.17
2023-05-25T09:35:16.363Z,4.18
2023-05-25T09:37:45.267Z,3.05
2023-05-25T09:40:14.810Z,3.22
2023-05-25T09:42:44.157Z,2.80
2023-05-25T09:45:11.984Z,3.03
2023-05-25T09:47:41.722Z,3.35
2023-05-25T09:50:10.867Z,2.72
2023-05-25T09:52:38.971Z,3.28
2023-05-25T09:55:10.542Z,3.53
2023-05-25T09:57:38.474Z,4.10
2023-05-25T10:00:08.793Z,2.83
2023-05-25T10:02:37.260Z,2.85
2023-05-25T10:05:07.516Z,3.90
2023-05-25T10:07:36.001Z,3.17
2023-05-25T10:10:08.433Z,2.90
2023-05-25T10:12:36.644Z,2.90
2023-05-25T10:15:05.340Z,3.03
2023-05-25T10:17:37.289Z,3.38
2023-05-25T10:20:09.936Z,2.70
2023-05-25T10:22:41.928Z,3.00
2023-05-25T10:25:14.969Z,2.90
2023-05-25T10:27:45.546Z,2.45
2023-05-25T10:30:16.073Z,3.15
2023-05-25T10:32:47.916Z,2.88
2023-05-25T10:35:18.754Z,2.85
2023-05-25T10:37:47.198Z,2.78
2023-05-25T10:40:15.597Z,3.05
2023-05-25T10:42:44.139Z,2.65
2023-05-25T10:45:12.560Z,3.13
2023-05-25T10:47:43.146Z,3.00
2023-05-25T10:50:23.083Z,3.08
2023-05-25T10:53:01.638Z,3.03
2023-05-25T10:55:32.436Z,3.28
2023-05-25T10:58:10.814Z,2.95
2023-05-25T11:00:39.615Z,3.22
2023-05-25T11:03:08.531Z,2.92
2023-05-25T11:05:41.202Z,3.30
2023-05-25T11:08:10.108Z,3.22
2023-05-25T11:10:59.774Z,3.33
2023-05-25T11:13:40.872Z,3.95
2023-05-25T11:16:20.650Z,3.03
2023-05-25T11:18:53.231Z,3.30
2023-05-25T11:21:43.709Z,3.42
2023-05-25T11:24:16.804Z,3.25
2023-05-25T11:26:58.234Z,3.53
2023-05-25T11:29:27.198Z,4.40
2023-05-25T11:31:56.602Z,3.88
2023-05-25T11:34:25.820Z,3.97
2023-05-25T11:37:01.678Z,4.15
2023-05-25T11:39:30.375Z,3.90
2023-05-25T11:42:03.904Z,3.65
2023-05-25T11:44:33.544Z,4.53
2023-05-25T11:47:06.054Z,4.28
2023-05-25T11:49:36.184Z,3.97
2023-05-25T11:52:07.936Z,4.93
2023-05-25T11:54:36.518Z,5.60
2023-05-25T11:57:04.858Z,4.40
2023-05-25T11:59:33.558Z,4.55
2023-05-25T12:02:03.391Z,3.80
2023-05-25T12:04:33.147Z,5.00
2023-05-25T12:07:04.599Z,4.45
2023-05-25T12:09:36.764Z,4.05
2023-05-25T12:12:05.680Z,4.22
2023-05-25T12:14:36.158Z,3.55
2023-05-25T12:17:04.384Z,3.65
2023-05-25T12:19:32.830Z,3.42
2023-05-25T12:22:00.759Z,3.75
2023-05-25T12:24:28.696Z,4.05
2023-05-25T12:26:59.201Z,4.78
2023-05-25T12:29:27.205Z,3.70
2023-05-25T12:32:02.702Z,3.45
2023-05-25T12:34:30.539Z,2.75
2023-05-25T12:36:58.458Z,3.22
2023-05-25T12:39:39.023Z,2.85
2023-05-25T12:42:15.286Z,3.00
2023-05-25T12:44:44.254Z,3.88
2023-05-25T12:47:14.532Z,2.80
2023-05-25T12:49:43.393Z,2.85
2023-05-25T12:52:12.864Z,2.75
2023-05-25T12:54:44.122Z,3.33
2023-05-25T12:57:14.667Z,3.13
2023-05-25T12:59:44.558Z,3.00
2023-05-25T13:02:13.774Z,3.00
2023-05-25T13:04:44.755Z,3.10
2023-05-25T13:07:12.730Z,2.75
2023-05-25T13:09:40.571Z,2.88
2023-05-25T13:12:12.608Z,3.20
2023-05-25T13:14:41.857Z,3.03
2023-05-25T13:17:09.648Z,3.17
2023-05-25T13:19:37.566Z,3.55
2023-05-25T13:22:05.627Z,3.25
2023-05-25T13:24:33.585Z,3.33
2023-05-25T13:27:01.463Z,3.00
2023-05-25T13:29:29.222Z,4.20
2023-05-25T13:31:58.474Z,3.20
2023-05-25T13:34:26.255Z,2.97
2023-05-25T13:36:54.044Z,3.42
2023-05-25T13:39:22.712Z,3.63
2023-05-25T13:41:50.477Z,4.15
2023-05-25T13:44:18.288Z,3.38
2023-05-25T13:46:46.772Z,4.13
2023-05-25T13:49:16.405Z,3.53
2023-05-25T13:51:44.251Z,4.22
2023-05-25T13:54:12.938Z,3.63
2023-05-25T13:56:42.410Z,3.53
2023-05-25T13:59:10.301Z,4.35
2023-05-25T14:01:38.168Z,3.85
2023-05-25T14:04:06.049Z,4.68
2023-05-25T14:06:35.898Z,4.45
2023-05-25T14:09:03.766Z,4.10
2023-05-25T14:11:31.583Z,4.43
2023-05-25T14:13:59.432Z,4.45
2023-05-25T14:16:27.411Z,4.07
2023-05-25T14:18:56.451Z,4.90
2023-05-25T14:21:24.210Z,4.15
2023-05-25T14:24:00.846Z,4.25
2023-05-25T14:26:28.790Z,3.85
2023-05-25T14:28:56.617Z,4.13
2023-05-25T14:31:24.403Z,4.10
2023-05-25T14:34:15.237Z,3.50
2023-05-25T14:36:47.042Z,4.00
2023-05-25T14:39:18.648Z,4.60
2023-05-25T14:41:46.429Z,4.95
2023-05-25T14:44:14.212Z,3.88
2023-05-25T14:46:42.075Z,4.93
2023-05-25T14:49:09.953Z,4.40
2023-05-25T14:51:38.112Z,4.40
2023-05-25T14:54:07.948Z,3.90
2023-05-25T14:56:37.236Z,3.92
2023-05-25T14:59:05.125Z,4.55
2023-05-25T15:01:32.976Z,4.32
2023-05-25T15:04:00.883Z,4.28
2023-05-25T15:06:28.787Z,3.90
2023-05-25T15:08:56.612Z,5.03
2023-05-25T15:11:24.453Z,4.63
2023-05-25T15:13:53.954Z,4.82
2023-05-25T15:16:21.827Z,4.47
2023-05-25T15:18:50.974Z,4.30
2023-05-25T15:21:19.052Z,5.25
2023-05-25T15:23:46.891Z,5.53
2023-05-25T15:26:14.787Z,5.60
2023-05-25T15:28:42.648Z,4.57
2023-05-25T15:31:11.888Z,5.28
2023-05-25T15:33:51.973Z,5.15
2023-05-25T15:36:24.376Z,4.40
2023-05-25T15:38:52.280Z,5.20
2023-05-25T15:41:20.076Z,4.75
2023-05-25T15:43:52.287Z,5.40
2023-05-25T15:46:21.660Z,5.30
2023-05-25T15:48:49.520Z,6.38
2023-05-25T15:51:17.320Z,4.32
2023-05-25T15:53:45.151Z,3.92
2023-05-25T15:56:12.935Z,4.20
2023-05-25T15:58:40.970Z,4.90
2023-05-25T16:01:09.439Z,4.60
2023-05-25T16:03:39.320Z,4.55
2023-05-25T16:06:07.993Z,4.60
2023-05-25T16:08:35.785Z,5.55
2023-05-25T16:11:03.608Z,5.03
2023-05-25T16:13:31.493Z,4.60
2023-05-25T16:15:59.338Z,4.18
2023-05-25T16:18:27.112Z,4.25
2023-05-25T16:20:57.878Z,4.75
2023-05-25T16:23:26.057Z,4.45
2023-05-25T16:25:53.806Z,4.72
2023-05-25T16:28:21.594Z,4.78
2023-05-25T16:30:49.353Z,4.85
2023-05-25T16:33:17.219Z,4.30
2023-05-25T16:35:47.151Z,4.47
2023-05-25T16:38:16.611Z,5.03
2023-05-25T16:40:44.406Z,4.63
2023-05-25T16:43:12.397Z,4.32
2023-05-25T16:45:40.318Z,5.03
2023-05-25T16:48:08.133Z,5.32
2023-05-25T16:50:35.964Z,5.85
2023-05-25T16:53:03.767Z,6.00
2023-05-25T16:55:33.691Z,6.13
2023-05-25T16:58:01.469Z,5.40
2023-05-25T17:00:29.247Z,6.07
2023-05-25T17:02:57.183Z,5.88
2023-05-25T17:05:25.128Z,6.82
2023-05-25T17:07:52.966Z,5.85
2023-05-25T17:10:20.766Z,5.78
2023-05-25T17:12:49.959Z,5.82
2023-05-25T17:15:17.810Z,5.70
2023-05-25T17:17:45.758Z,5.70
2023-05-25T17:20:13.553Z,5.78
2023-05-25T17:22:42.453Z,6.75
2023-05-25T17:25:10.627Z,6.22
2023-05-25T17:27:38.445Z,5.60
2023-05-25T17:30:09.254Z,6.22
2023-05-25T17:32:38.405Z,6.60
2023-05-25T17:35:06.861Z,6.85
2023-05-25T17:37:34.811Z,6.07
2023-05-25T17:40:02.635Z,6.13
2023-05-25T17:42:30.422Z,6.18
2023-05-25T17:44:58.177Z,5.78
2023-05-25T17:47:27.498Z,5.80
2023-05-25T17:49:56.002Z,6.35
2023-05-25T17:52:23.823Z,6.70
2023-05-25T17:54:51.657Z,6.50
2023-05-25T17:57:19.433Z,6.55
2023-05-25T17:59:47.234Z,5.97
2023-05-25T18:02:15.172Z,6.03
2023-05-25T18:04:44.540Z,7.57
2023-05-25T18:07:12.313Z,6.43
2023-05-25T18:09:40.113Z,7.65
2023-05-25T18:12:08.396Z,6.65
2023-05-25T18:14:37.783Z,7.82
2023-05-25T18:17:06.067Z,6.30
2023-05-25T18:19:33.917Z,7.25
2023-05-25T18:22:03.063Z,5.43
2023-05-25T18:24:30.869Z,6.50
2023-05-25T18:26:59.847Z,6.35
2023-05-25T18:29:27.640Z,5.95
2023-05-25T18:31:55.418Z,5.53
2023-05-25T18:34:23.210Z,5.88
2023-05-25T18:36:50.997Z,6.65
2023-05-25T18:39:20.321Z,7.03
2023-05-25T18:41:48.169Z,7.53
2023-05-25T18:44:15.988Z,5.43
2023-05-25T18:46:44.517Z,5.78
2023-05-25T18:49:12.469Z,6.53
2023-05-25T18:51:40.291Z,5.93
2023-05-25T18:54:08.257Z,5.82
2023-05-25T18:56:38.427Z,6.70
2023-05-25T18:59:06.274Z,6.43
2023-05-25T19:01:34.142Z,5.90
2023-05-25T19:04:02.065Z,5.10
2023-05-25T19:06:29.955Z,4.70
2023-05-25T19:08:57.788Z,7.20
2023-05-25T19:11:26.027Z,7.38
2023-05-25T19:13:55.174Z,6.57
2023-05-25T19:16:23.030Z,5.57
2023-05-25T19:18:50.797Z,6.15
2023-05-25T19:21:18.609Z,6.57
2023-05-25T19:23:46.422Z,6.25
2023-05-25T19:26:14.250Z,7.30
2023-05-25T19:28:42.093Z,6.65
2023-05-25T19:31:11.322Z,7.30
2023-05-25T19:33:39.164Z,6.00
2023-05-25T19:36:07.340Z,6.22
2023-05-25T19:38:41.103Z,6.78
2023-05-25T19:41:09.909Z,5.85
2023-05-25T19:43:38.311Z,5.82
2023-05-25T19:46:06.316Z,5.38
2023-05-25T19:48:35.564Z,6.30
2023-05-25T19:51:03.402Z,6.55
2023-05-25T19:53:57.787Z,6.38
2023-05-25T19:58:55.202Z,7.00
2023-05-25T20:01:23.161Z,6.65
2023-05-25T20:03:52.482Z,5.80
2023-05-25T20:06:20.518Z,5.90
2023-05-25T20:08:48.312Z,6.25
2023-05-25T20:11:16.166Z,7.90
2023-05-25T20:13:44.572Z,6.00
2023-05-25T20:16:13.031Z,7.00
2023-05-25T20:18:41.037Z,5.72
2023-05-25T20:21:18.678Z,6.22
2023-05-25T20:23:49.122Z,6.30
2023-05-25T20:26:20.053Z,6.03
2023-05-25T20:29:02.413Z,6.00
2023-05-25T20:31:30.345Z,6.20
2023-05-25T20:37:42.459Z,5.40
2023-05-25T20:40:46.694Z,6.80
2023-05-25T20:43:17.565Z,5.70
2023-05-25T20:45:45.617Z,6.28
2023-05-25T20:48:16.509Z,6.60
2023-05-25T20:50:44.476Z,5.70
2023-05-25T20:53:12.304Z,6.10
2023-05-25T20:55:41.623Z,5.75
2023-05-25T20:58:09.479Z,6.15
2023-05-25T21:00:38.684Z,5.85
2023-05-25T21:03:08.534Z,7.03
2023-05-25T21:05:38.122Z,6.40
2023-05-25T21:08:06.068Z,6.35
2023-05-25T21:10:43.277Z,5.78
2023-05-25T21:13:11.195Z,5.40
2023-05-25T21:15:41.623Z,4.78
2023-05-25T21:18:12.825Z,6.25
2023-05-25T21:20:40.742Z,6.13
2023-05-25T21:23:13.958Z,7.78
2023-05-25T21:25:45.959Z,5.43
2023-05-25T21:32:49.043Z,5.93
2023-05-25T21:35:18.070Z,5.63
2023-05-25T21:37:46.037Z,6.13
2023-05-25T21:40:17.169Z,6.28
2023-05-25T21:42:47.081Z,5.93
2023-05-25T21:45:15.971Z,7.65
2023-05-25T21:47:43.755Z,6.50
2023-05-25T21:50:12.749Z,6.43
2023-05-25T21:52:41.630Z,6.63
2023-05-25T21:55:10.211Z,5.82
2023-05-25T21:57:38.207Z,5.60
2023-05-25T22:00:10.762Z,7.65
2023-05-25T22:02:38.633Z,6.47
2023-05-25T22:05:07.114Z,5.15
2023-05-25T22:07:34.911Z,7.97
2023-05-25T22:10:02.714Z,5.50
2023-05-25T22:12:30.562Z,5.88
2023-05-25T22:14:58.438Z,8.23
2023-05-25T22:17:27.613Z,6.60
2023-05-25T22:20:06.405Z,6.75
2023-05-25T22:22:37.341Z,5.30
2023-05-25T22:25:05.851Z,6.63
2023-05-25T22:27:34.107Z,5.72
2023-05-25T22:30:06.517Z,5.75
2023-05-25T22:32:38.265Z,5.57
2023-05-25T22:35:07.140Z,6.13
2023-05-25T22:37:35.027Z,5.82
2023-05-25T22:40:02.997Z,5.65
2023-05-25T22:42:30.976Z,6.32
2023-05-25T22:44:58.714Z,6.53
2023-05-25T22:47:26.877Z,5.97
2023-05-25T22:49:56.174Z,6.53
2023-05-25T22:52:23.922Z,5.05
2023-05-25T22:54:51.688Z,6.20
2023-05-25T22:57:19.443Z,5.72
2023-05-25T22:59:47.226Z,6.20
2023-05-25T23:02:17.678Z,5.97
2023-05-25T23:04:45.739Z,4.60
2023-05-25T23:07:14.943Z,6.05
2023-05-25T23:09:55.909Z,5.70
2023-05-25T23:12:29.238Z,6.18
2023-05-25T23:15:02.099Z,5.95
2023-05-25T23:17:32.685Z,6.97
2023-05-25T23:20:01.952Z,5.82
2023-05-25T23:22:31.089Z,5.97
2023-05-25T23:24:58.844Z,6.50
2023-05-25T23:27:27.307Z,5.30
2023-05-25T23:29:55.125Z,5.68
2023-05-25T23:32:22.916Z,7.10
2023-05-25T23:34:50.758Z,6.85
2023-05-25T23:37:18.496Z,6.63
2023-05-25T23:39:47.602Z,6.35
2023-05-25T23:42:16.781Z,6.68
2023-05-25T23:44:44.595Z,7.38
2023-05-25T23:47:12.837Z,5.85
2023-05-25T23:49:43.469Z,6.35
2023-05-25T23:52:16.853Z,8.35
2023-05-25T23:54:44.882Z,6.20
2023-05-25T23:57:22.949Z,6.32
2023-05-25T23:59:50.795Z,6.47
